createdAt,value
2023-03-11T00:00:17.025Z,46.33
2023-03-11T00:03:04.406Z,45.80
2023-03-11T00:05:33.732Z,45.90
2023-03-11T00:08:00.954Z,45.75
2023-03-11T00:10:30.470Z,45.66
2023-03-11T00:12:58.336Z,45.47
2023-03-11T00:15:25.900Z,45.18
2023-03-11T00:17:52.681Z,45.50
2023-03-11T00:20:28.204Z,45.40
2023-03-11T00:22:55.224Z,45.61
2023-03-11T00:25:23.940Z,45.63
2023-03-11T00:27:50.894Z,45.74
2023-03-11T00:30:18.983Z,45.41
2023-03-11T00:32:48.604Z,44.97
2023-03-11T00:35:17.599Z,45.08
2023-03-11T00:37:44.996Z,45.16
2023-03-11T00:40:17.115Z,45.36
2023-03-11T00:42:44.036Z,45.35
2023-03-11T00:45:11.804Z,45.11
2023-03-11T00:47:38.659Z,45.19
2023-03-11T00:50:06.708Z,45.26
2023-03-11T00:52:33.545Z,45.24
2023-03-11T00:55:00.662Z,45.24
2023-03-11T00:57:29.196Z,45.32
2023-03-11T00:59:56.384Z,45.20
2023-03-11T01:02:23.807Z,45.11
2023-03-11T01:04:55.690Z,45.29
2023-03-11T01:07:23.117Z,44.98
2023-03-11T01:09:50.196Z,44.81
2023-03-11T01:12:16.989Z,45.04
2023-03-11T01:14:44.173Z,45.04
2023-03-11T01:17:10.979Z,44.99
2023-03-11T01:19:38.055Z,44.94
2023-03-11T01:22:04.862Z,45.02
2023-03-11T01:24:31.893Z,44.89
2023-03-11T01:26:58.696Z,44.84
2023-03-11T01:29:25.761Z,44.79
2023-03-11T01:31:52.606Z,44.86
2023-03-11T01:34:19.713Z,44.68
2023-03-11T01:36:46.466Z,44.67
2023-03-11T01:39:13.567Z,44.87
2023-03-11T01:41:41.400Z,44.67
2023-03-11T01:44:13.611Z,44.70
2023-03-11T01:47:02.140Z,44.75
2023-03-11T01:49:29.277Z,44.46
2023-03-11T01:52:01.284Z,44.17
2023-03-11T01:54:30.364Z,44.04
2023-03-11T01:56:57.124Z,43.95
2023-03-11T01:59:29.393Z,43.95
2023-03-11T02:02:14.877Z,43.69
2023-03-11T02:04:42.089Z,44.17
2023-03-11T02:07:09.399Z,43.86
2023-03-11T02:09:36.531Z,44.05
2023-03-11T02:12:04.158Z,44.16
2023-03-11T02:14:31.290Z,44.37
2023-03-11T02:16:58.538Z,43.75
2023-03-11T02:19:31.678Z,43.79
2023-03-11T02:21:58.446Z,43.66
2023-03-11T02:24:34.391Z,43.54
2023-03-11T02:27:03.748Z,43.33
2023-03-11T02:29:30.842Z,43.48
2023-03-11T02:31:57.604Z,43.43
2023-03-11T02:34:26.629Z,43.24
2023-03-11T02:36:53.402Z,43.15
2023-03-11T02:39:37.172Z,42.96
2023-03-11T02:42:06.182Z,43.06
2023-03-11T02:44:33.459Z,42.91
2023-03-11T02:47:00.803Z,42.72
2023-03-11T02:49:27.973Z,42.99
2023-03-11T02:51:54.764Z,43.07
2023-03-11T02:54:21.825Z,43.03
2023-03-11T02:56:48.623Z,43.14
2023-03-11T02:59:15.680Z,43.24
2023-03-11T03:01:42.421Z,43.07
2023-03-11T03:04:09.574Z,42.69
2023-03-11T03:06:36.361Z,42.82
2023-03-11T03:09:03.834Z,42.95
2023-03-11T03:11:30.596Z,43.20
2023-03-11T03:13:57.677Z,43.09
2023-03-11T03:16:24.419Z,43.02
2023-03-11T03:18:52.454Z,43.01
2023-03-11T03:21:19.196Z,43.34
2023-03-11T03:23:46.282Z,43.39
2023-03-11T03:26:14.181Z,43.29
2023-03-11T03:28:41.243Z,43.20
2023-03-11T03:31:09.191Z,43.28
2023-03-11T03:33:36.280Z,43.31
2023-03-11T03:36:09.581Z,43.37
2023-03-11T03:38:36.732Z,43.76
2023-03-11T03:41:03.720Z,43.76
2023-03-11T03:43:30.839Z,43.55
2023-03-11T03:46:03.022Z,43.57
2023-03-11T03:48:30.309Z,43.70
2023-03-11T03:50:57.093Z,44.01
2023-03-11T03:53:24.153Z,43.90
2023-03-11T03:55:51.031Z,44.14
2023-03-11T03:58:18.100Z,44.14
2023-03-11T04:00:44.912Z,44.23
2023-03-11T04:03:12.074Z,44.18
2023-03-11T04:05:38.896Z,44.34
2023-03-11T04:08:05.993Z,44.41
2023-03-11T04:10:32.777Z,44.39
2023-03-11T04:12:59.924Z,44.08
2023-03-11T04:15:26.676Z,44.23
2023-03-11T04:17:53.811Z,44.16
2023-03-11T04:20:20.744Z,44.30
2023-03-11T04:22:47.861Z,44.60
2023-03-11T04:25:14.793Z,44.47
2023-03-11T04:27:45.978Z,44.43
2023-03-11T04:30:13.269Z,44.12
2023-03-11T04:32:40.507Z,43.96
2023-03-11T04:35:07.676Z,44.29
2023-03-11T04:37:34.778Z,44.13
2023-03-11T04:40:01.588Z,43.84
2023-03-11T04:42:28.694Z,43.63
2023-03-11T04:44:55.484Z,44.05
2023-03-11T04:47:22.533Z,43.86
2023-03-11T04:49:49.316Z,43.92
2023-03-11T04:52:16.397Z,43.66
2023-03-11T04:54:43.155Z,44.09
2023-03-11T04:57:10.270Z,43.89
2023-03-11T04:59:37.039Z,43.89
2023-03-11T05:02:04.187Z,43.72
2023-03-11T05:04:30.982Z,43.96
2023-03-11T05:06:58.116Z,43.76
2023-03-11T05:09:24.937Z,43.62
2023-03-11T05:11:52.043Z,43.84
2023-03-11T05:14:18.815Z,43.90
2023-03-11T05:16:45.919Z,43.68
2023-03-11T05:19:31.105Z,43.95
2023-03-11T05:21:58.567Z,44.13
2023-03-11T05:24:28.197Z,43.89
2023-03-11T05:26:55.487Z,43.83
2023-03-11T05:29:22.392Z,44.06
2023-03-11T05:31:49.551Z,43.91
2023-03-11T05:34:16.405Z,43.84
2023-03-11T05:36:43.656Z,43.83
2023-03-11T05:39:10.598Z,43.74
2023-03-11T05:41:37.650Z,44.11
2023-03-11T05:44:04.496Z,43.73
2023-03-11T05:46:32.380Z,43.82
2023-03-11T05:49:00.062Z,43.89
2023-03-11T05:51:27.254Z,43.73
2023-03-11T05:53:54.055Z,44.19
2023-03-11T05:56:21.964Z,44.31
2023-03-11T05:58:48.810Z,44.11
2023-03-11T06:01:17.298Z,43.86
2023-03-11T06:03:44.099Z,44.25
2023-03-11T06:06:12.393Z,44.40
2023-03-11T06:08:39.202Z,44.23
2023-03-11T06:11:07.936Z,43.39
2023-03-11T06:13:35.123Z,43.67
2023-03-11T06:16:02.363Z,43.67
2023-03-11T06:18:29.148Z,43.76
2023-03-11T06:20:59.813Z,43.38
2023-03-11T06:23:27.037Z,43.53
2023-03-11T06:25:58.173Z,43.69
2023-03-11T06:28:25.166Z,43.45
2023-03-11T06:30:52.280Z,43.75
2023-03-11T06:33:19.090Z,43.78
2023-03-11T06:35:56.761Z,43.66
2023-03-11T06:38:23.623Z,43.55
2023-03-11T06:40:50.655Z,43.78
2023-03-11T06:43:17.448Z,43.86
2023-03-11T06:45:45.294Z,43.77
2023-03-11T06:48:12.078Z,43.76
2023-03-11T06:50:39.201Z,43.85
2023-03-11T06:53:08.812Z,43.60
2023-03-11T06:55:36.149Z,43.81
2023-03-11T06:58:03.793Z,43.36
2023-03-11T07:00:31.247Z,43.94
2023-03-11T07:02:58.177Z,43.66
2023-03-11T07:05:25.320Z,43.62
2023-03-11T07:07:54.610Z,43.78
2023-03-11T07:10:21.745Z,43.82
2023-03-11T07:12:48.579Z,43.36
2023-03-11T07:15:15.660Z,43.94
2023-03-11T07:17:42.532Z,43.70
2023-03-11T07:20:10.423Z,44.06
2023-03-11T07:22:37.245Z,43.89
2023-03-11T07:25:04.647Z,43.32
2023-03-11T07:27:31.406Z,43.80
2023-03-11T07:29:58.512Z,43.68
2023-03-11T07:32:25.380Z,43.37
2023-03-11T07:34:52.577Z,43.26
2023-03-11T07:37:19.812Z,43.33
2023-03-11T07:39:46.928Z,43.22
2023-03-11T07:42:13.673Z,43.17
2023-03-11T07:44:40.766Z,43.12
2023-03-11T07:47:07.553Z,43.35
2023-03-11T07:49:34.623Z,43.18
2023-03-11T07:52:01.474Z,43.30
2023-03-11T07:54:28.531Z,43.57
2023-03-11T07:56:55.314Z,43.09
2023-03-11T07:59:22.490Z,43.65
2023-03-11T08:01:50.601Z,43.44
2023-03-11T08:04:18.909Z,43.50
2023-03-11T08:06:46.669Z,43.44
2023-03-11T08:09:13.783Z,43.50
2023-03-11T08:11:40.668Z,43.41
2023-03-11T08:14:07.852Z,43.63
2023-03-11T08:16:34.705Z,43.45
2023-03-11T08:19:02.025Z,43.55
2023-03-11T08:21:30.020Z,43.64
2023-03-11T08:23:58.507Z,43.70
2023-03-11T08:26:25.355Z,43.61
2023-03-11T08:28:52.494Z,43.46
2023-03-11T08:31:26.843Z,43.85
2023-03-11T08:33:59.350Z,43.96
2023-03-11T08:36:26.521Z,43.73
2023-03-11T08:38:53.661Z,43.91
2023-03-11T08:41:20.584Z,44.16
2023-03-11T08:43:47.737Z,44.50
2023-03-11T08:46:19.489Z,44.19
2023-03-11T08:48:46.625Z,44.40
2023-03-11T08:51:13.522Z,44.50
2023-03-11T08:53:40.742Z,44.34
2023-03-11T08:56:07.924Z,44.29
2023-03-11T08:58:35.132Z,44.20
2023-03-11T09:01:02.048Z,44.21
2023-03-11T09:03:32.121Z,44.33
2023-03-11T09:06:02.593Z,44.45
2023-03-11T09:08:29.962Z,44.49
2023-03-11T09:10:56.788Z,44.42
2023-03-11T09:13:23.993Z,44.86
2023-03-11T09:15:51.287Z,44.77
2023-03-11T09:18:18.488Z,44.92
2023-03-11T09:20:45.433Z,44.68
2023-03-11T09:23:14.045Z,44.92
2023-03-11T09:25:40.883Z,44.76
2023-03-11T09:28:07.992Z,44.72
2023-03-11T09:30:35.764Z,44.77
2023-03-11T09:33:03.002Z,44.86
2023-03-11T09:35:29.836Z,45.20
2023-03-11T09:37:56.989Z,45.28
2023-03-11T09:40:23.965Z,45.36
2023-03-11T09:43:09.789Z,45.18
2023-03-11T09:45:38.882Z,45.07
2023-03-11T09:48:25.314Z,45.08
2023-03-11T09:51:08.465Z,45.42
2023-03-11T09:53:40.771Z,45.27
2023-03-11T09:56:18.212Z,45.20
2023-03-11T09:58:47.573Z,45.52
2023-03-11T10:01:22.493Z,45.48
2023-03-11T10:03:50.604Z,45.58
2023-03-11T10:06:21.746Z,45.49
2023-03-11T10:09:01.087Z,45.35
2023-03-11T10:11:36.966Z,45.68
2023-03-11T10:14:25.926Z,45.69
2023-03-11T10:17:23.154Z,45.78
2023-03-11T10:19:53.528Z,45.86
2023-03-11T10:23:05.526Z,46.15
2023-03-11T10:26:20.351Z,45.96
2023-03-11T10:28:51.247Z,46.10
2023-03-11T10:31:38.112Z,46.13
2023-03-11T10:34:14.002Z,46.16
2023-03-11T10:36:55.997Z,46.17
2023-03-11T10:39:23.003Z,46.07
2023-03-11T10:41:52.835Z,46.39
2023-03-11T10:44:23.977Z,46.00
2023-03-11T10:46:51.111Z,45.88
2023-03-11T10:49:18.359Z,46.33
2023-03-11T10:51:50.515Z,46.08
2023-03-11T10:54:31.740Z,46.29
2023-03-11T10:57:06.949Z,46.24
2023-03-11T10:59:34.795Z,46.33
2023-03-11T11:02:03.676Z,46.32
2023-03-11T11:04:40.748Z,46.32
2023-03-11T11:07:41.188Z,46.31
2023-03-11T11:10:20.529Z,46.66
2023-03-11T11:13:12.691Z,46.38
2023-03-11T11:16:03.057Z,46.16
2023-03-11T11:18:30.168Z,46.11
2023-03-11T11:21:01.243Z,46.57
2023-03-11T11:23:48.626Z,46.38
2023-03-11T11:26:22.378Z,46.37
2023-03-11T11:29:15.841Z,48.85
2023-03-11T11:31:46.208Z,49.05
2023-03-11T11:34:33.046Z,51.54
2023-03-11T11:37:01.904Z,50.71
2023-03-11T11:39:30.652Z,49.88
2023-03-11T11:41:57.520Z,49.16
2023-03-11T11:44:31.471Z,48.57
2023-03-11T11:47:06.331Z,48.55
2023-03-11T11:49:33.548Z,48.16
2023-03-11T11:52:14.029Z,48.04
2023-03-11T11:54:46.337Z,47.85
2023-03-11T11:57:14.701Z,47.67
2023-03-11T11:59:42.299Z,47.83
2023-03-11T12:02:52.984Z,47.54
2023-03-11T12:05:27.465Z,47.51
2023-03-11T12:07:58.117Z,47.48
2023-03-11T12:10:39.832Z,48.23
2023-03-11T12:13:21.888Z,48.97
2023-03-11T12:16:02.530Z,49.83
2023-03-11T12:18:40.534Z,49.61
2023-03-11T12:21:27.429Z,48.84
2023-03-11T12:24:25.175Z,48.53
2023-03-11T12:26:52.552Z,48.09
2023-03-11T12:29:29.570Z,47.63
2023-03-11T12:31:56.693Z,47.43
2023-03-11T12:34:24.924Z,47.24
2023-03-11T12:36:52.446Z,47.58
2023-03-11T12:39:25.431Z,46.94
2023-03-11T12:42:11.185Z,47.31
2023-03-11T12:44:38.707Z,47.41
2023-03-11T12:47:09.083Z,47.16
2023-03-11T12:49:46.838Z,46.79
2023-03-11T12:52:13.912Z,47.05
2023-03-11T12:54:40.747Z,46.94
2023-03-11T12:57:16.938Z,46.85
2023-03-11T12:59:49.676Z,46.83
2023-03-11T13:02:28.880Z,47.04
2023-03-11T13:04:59.670Z,47.06
2023-03-11T13:07:51.093Z,46.70
2023-03-11T13:10:40.714Z,46.71
2023-03-11T13:13:32.509Z,46.78
2023-03-11T13:16:19.391Z,47.11
2023-03-11T13:18:51.658Z,46.81
2023-03-11T13:21:27.562Z,46.92
2023-03-11T13:24:16.203Z,46.81
2023-03-11T13:27:05.008Z,46.75
2023-03-11T13:30:17.118Z,47.28
2023-03-11T13:32:53.028Z,47.53
2023-03-11T13:35:34.100Z,47.59
2023-03-11T13:38:13.311Z,47.50
2023-03-11T13:40:41.914Z,47.27
2023-03-11T13:43:25.477Z,47.14
2023-03-11T13:46:00.733Z,47.60
2023-03-11T13:48:37.659Z,47.45
2023-03-11T13:51:12.249Z,47.05
2023-03-11T13:53:43.217Z,47.20
2023-03-11T13:56:49.190Z,47.06
2023-03-11T13:59:17.841Z,47.07
2023-03-11T14:01:55.110Z,46.92
2023-03-11T14:04:30.263Z,46.96
2023-03-11T14:06:58.198Z,47.07
2023-03-11T14:09:26.558Z,46.93
2023-03-11T14:11:56.877Z,46.84
2023-03-11T14:15:01.186Z,46.82
2023-03-11T14:17:28.269Z,46.92
2023-03-11T14:20:15.297Z,46.84
2023-03-11T14:22:52.509Z,46.99
2023-03-11T14:25:27.505Z,47.05
2023-03-11T14:27:58.519Z,46.76
2023-03-11T14:30:30.295Z,46.38
2023-03-11T14:33:00.572Z,46.56
2023-03-11T14:35:27.454Z,47.04
2023-03-11T14:37:54.619Z,46.63
2023-03-11T14:40:28.763Z,46.82
2023-03-11T14:42:57.722Z,46.08
2023-03-11T14:45:32.930Z,46.90
2023-03-11T14:48:04.702Z,46.50
2023-03-11T14:50:35.079Z,46.85
2023-03-11T14:53:14.280Z,46.84
2023-03-11T14:55:51.118Z,46.64
2023-03-11T14:58:34.677Z,47.09
2023-03-11T15:01:19.765Z,46.87
2023-03-11T15:03:50.165Z,46.99
2023-03-11T15:06:18.305Z,47.01
2023-03-11T15:08:50.885Z,47.05
2023-03-11T15:11:20.012Z,47.07
2023-03-11T15:13:50.541Z,46.66
2023-03-11T15:16:43.903Z,46.46
2023-03-11T15:19:29.536Z,46.78
2023-03-11T15:21:59.913Z,46.75
2023-03-11T15:24:28.769Z,46.52
2023-03-11T15:26:56.516Z,46.56
2023-03-11T15:29:23.744Z,46.48
2023-03-11T15:31:50.624Z,46.71
2023-03-11T15:34:17.697Z,46.49
2023-03-11T15:37:20.474Z,46.54
2023-03-11T15:39:51.134Z,46.60
2023-03-11T15:42:23.062Z,46.70
2023-03-11T15:45:24.242Z,46.66
2023-03-11T15:47:51.012Z,46.36
2023-03-11T15:50:24.778Z,46.97
2023-03-11T15:52:56.508Z,46.61
2023-03-11T15:55:24.420Z,46.53
2023-03-11T15:57:52.679Z,46.68
2023-03-11T16:00:22.319Z,46.44
2023-03-11T16:02:50.103Z,46.58
2023-03-11T16:05:22.028Z,46.39
2023-03-11T16:07:48.951Z,46.56
2023-03-11T16:10:18.074Z,46.45
2023-03-11T16:12:44.954Z,46.22
2023-03-11T16:15:28.643Z,46.56
2023-03-11T16:17:57.494Z,46.40
2023-03-11T16:20:25.663Z,46.41
2023-03-11T16:22:53.684Z,46.11
2023-03-11T16:25:26.707Z,46.36
2023-03-11T16:27:54.021Z,46.44
2023-03-11T16:30:21.358Z,46.17
2023-03-11T16:32:48.206Z,46.00
2023-03-11T16:35:15.420Z,45.86
2023-03-11T16:37:43.358Z,46.01
2023-03-11T16:40:15.701Z,46.06
2023-03-11T16:42:43.671Z,45.96
2023-03-11T16:45:12.408Z,45.85
2023-03-11T16:47:39.231Z,45.74
2023-03-11T16:50:07.005Z,45.98
2023-03-11T16:52:34.169Z,46.39
2023-03-11T16:55:01.403Z,46.02
2023-03-11T16:57:28.259Z,46.00
2023-03-11T16:59:55.442Z,46.11
2023-03-11T17:02:24.512Z,45.90
2023-03-11T17:04:52.049Z,45.76
2023-03-11T17:07:18.855Z,45.90
2023-03-11T17:09:45.958Z,45.64
2023-03-11T17:12:15.729Z,45.79
2023-03-11T17:14:42.861Z,45.41
2023-03-11T17:17:09.757Z,46.13
2023-03-11T17:19:36.869Z,45.94
2023-03-11T17:22:03.967Z,45.73
2023-03-11T17:24:31.166Z,45.62
2023-03-11T17:26:58.397Z,45.56
2023-03-11T17:29:25.602Z,45.89
2023-03-11T17:31:52.464Z,45.98
2023-03-11T17:34:19.833Z,46.11
2023-03-11T17:36:46.625Z,46.36
2023-03-11T17:39:13.714Z,45.54
2023-03-11T17:41:40.469Z,45.65
2023-03-11T17:44:07.658Z,45.48
2023-03-11T17:46:36.328Z,45.90
2023-03-11T17:49:03.535Z,45.84
2023-03-11T17:51:30.532Z,45.35
2023-03-11T17:53:57.699Z,45.60
2023-03-11T17:56:24.571Z,45.40
2023-03-11T17:58:52.056Z,45.78
2023-03-11T18:01:20.912Z,45.69
2023-03-11T18:03:48.219Z,45.94
2023-03-11T18:06:15.140Z,45.89
2023-03-11T18:08:42.268Z,45.73
2023-03-11T18:11:11.772Z,45.41
2023-03-11T18:13:39.022Z,45.55
2023-03-11T18:16:07.981Z,45.80
2023-03-11T18:18:35.812Z,45.89
2023-03-11T18:21:04.443Z,45.54
2023-03-11T18:23:33.214Z,46.01
2023-03-11T18:26:01.106Z,45.92
2023-03-11T18:28:28.331Z,45.88
2023-03-11T18:30:55.352Z,45.54
2023-03-11T18:33:23.776Z,45.63
2023-03-11T18:35:50.946Z,45.97
2023-03-11T18:38:18.112Z,45.68
2023-03-11T18:40:45.002Z,45.84
2023-03-11T18:43:14.223Z,46.07
2023-03-11T18:45:41.101Z,46.01
2023-03-11T18:48:08.246Z,45.99
2023-03-11T18:50:35.049Z,46.05
2023-03-11T18:53:02.199Z,46.08
2023-03-11T18:55:29.051Z,46.11
2023-03-11T18:57:56.139Z,45.84
2023-03-11T19:00:23.758Z,46.07
2023-03-11T19:02:54.864Z,46.15
2023-03-11T19:05:21.926Z,46.48
2023-03-11T19:07:48.992Z,46.33
2023-03-11T19:10:18.030Z,46.27
2023-03-11T19:12:45.607Z,46.30
2023-03-11T19:15:12.699Z,46.06
2023-03-11T19:17:40.050Z,46.36
2023-03-11T19:20:08.773Z,46.03
2023-03-11T19:22:36.644Z,46.40
2023-03-11T19:25:04.571Z,46.26
2023-03-11T19:27:31.856Z,46.18
2023-03-11T19:29:58.684Z,46.28
2023-03-11T19:32:25.815Z,46.07
2023-03-11T19:34:52.658Z,46.48
2023-03-11T19:37:19.769Z,46.52
2023-03-11T19:39:46.567Z,46.34
2023-03-11T19:42:14.095Z,46.50
2023-03-11T19:44:40.923Z,46.60
2023-03-11T19:47:08.101Z,46.34
2023-03-11T19:49:34.873Z,46.22
2023-03-11T19:52:02.407Z,46.46
2023-03-11T19:54:29.310Z,46.72
2023-03-11T19:56:56.377Z,46.32
2023-03-11T19:59:23.243Z,46.50
2023-03-11T20:01:50.354Z,46.40
2023-03-11T20:04:17.250Z,46.46
2023-03-11T20:06:44.804Z,46.55
2023-03-11T20:09:12.645Z,46.65
2023-03-11T20:11:40.398Z,46.64
2023-03-11T20:14:07.535Z,46.71
2023-03-11T20:16:34.691Z,46.61
2023-03-11T20:19:01.668Z,46.62
2023-03-11T20:21:28.796Z,46.47
2023-03-11T20:23:55.926Z,46.40
2023-03-11T20:26:23.550Z,46.34
2023-03-11T20:28:50.396Z,46.18
2023-03-11T20:31:22.407Z,46.63
2023-03-11T20:33:49.771Z,46.42
2023-03-11T20:36:20.477Z,46.45
2023-03-11T20:38:51.580Z,46.38
2023-03-11T20:41:19.251Z,46.13
2023-03-11T20:43:46.136Z,46.30
2023-03-11T20:46:13.415Z,46.32
2023-03-11T20:48:40.373Z,46.57
2023-03-11T20:51:10.353Z,46.44
2023-03-11T20:53:37.366Z,46.71
2023-03-11T20:56:15.519Z,46.51
2023-03-11T20:58:43.221Z,46.69
2023-03-11T21:01:17.831Z,46.39
2023-03-11T21:03:45.006Z,46.39
2023-03-11T21:06:23.206Z,46.23
2023-03-11T21:08:50.242Z,46.49
2023-03-11T21:11:17.509Z,46.60
2023-03-11T21:13:44.529Z,46.54
2023-03-11T21:16:11.794Z,46.40
2023-03-11T21:18:38.836Z,46.70
2023-03-11T21:21:08.497Z,46.73
2023-03-11T21:23:35.909Z,49.43
2023-03-11T21:26:03.469Z,51.10
2023-03-11T21:28:31.858Z,50.66
2023-03-11T21:31:04.527Z,49.94
2023-03-11T21:33:31.755Z,49.02
2023-03-11T21:35:59.625Z,48.97
2023-03-11T21:38:26.862Z,48.51
2023-03-11T21:40:54.218Z,48.32
2023-03-11T21:43:21.125Z,48.16
2023-03-11T21:45:48.368Z,48.05
2023-03-11T21:48:15.220Z,47.87
2023-03-11T21:50:42.401Z,47.79
2023-03-11T21:53:09.289Z,47.96
2023-03-11T21:55:36.492Z,47.79
2023-03-11T21:58:03.422Z,47.43
2023-03-11T22:00:30.511Z,47.53
2023-03-11T22:02:57.576Z,47.53
2023-03-11T22:05:25.354Z,47.44
2023-03-11T22:07:52.389Z,47.42
2023-03-11T22:10:19.708Z,47.72
2023-03-11T22:12:46.589Z,47.56
2023-03-11T22:15:13.795Z,47.46
2023-03-11T22:17:40.662Z,47.41
2023-03-11T22:20:10.016Z,47.22
2023-03-11T22:22:36.909Z,47.58
2023-03-11T22:25:04.529Z,47.58
2023-03-11T22:27:31.646Z,47.03
2023-03-11T22:29:58.738Z,47.44
2023-03-11T22:32:25.583Z,47.28
2023-03-11T22:34:52.668Z,47.46
2023-03-11T22:37:19.399Z,47.35
2023-03-11T22:39:46.444Z,47.31
2023-03-11T22:42:13.237Z,47.29
2023-03-11T22:44:40.298Z,47.07
2023-03-11T22:47:07.069Z,47.54
2023-03-11T22:49:34.118Z,47.31
2023-03-11T22:52:00.898Z,47.31
2023-03-11T22:54:28.111Z,47.35
2023-03-11T22:56:54.919Z,47.04
2023-03-11T22:59:21.969Z,47.26
2023-03-11T23:01:48.829Z,47.42
2023-03-11T23:04:15.942Z,47.23
2023-03-11T23:06:42.726Z,47.37
2023-03-11T23:09:09.763Z,46.99
2023-03-11T23:11:36.498Z,47.29
2023-03-11T23:14:03.510Z,47.32
2023-03-11T23:16:31.296Z,47.30
2023-03-11T23:18:58.398Z,47.06
2023-03-11T23:21:27.330Z,47.42
2023-03-11T23:23:54.519Z,47.38
2023-03-11T23:26:21.470Z,47.42
2023-03-11T23:28:51.027Z,47.24
2023-03-11T23:31:18.203Z,47.35
2023-03-11T23:33:45.558Z,47.09
2023-03-11T23:36:14.707Z,47.20
2023-03-11T23:38:41.791Z,46.93
2023-03-11T23:41:10.486Z,47.32
2023-03-11T23:43:38.769Z,47.01
2023-03-11T23:46:05.912Z,47.01
2023-03-11T23:48:32.990Z,47.12
2023-03-11T23:50:59.730Z,47.08
2023-03-11T23:53:27.142Z,47.20
2023-03-11T23:55:54.154Z,47.27
2023-03-11T23:58:21.305Z,47.17
